Time;durP1;ratioP1;P1;durP2;ratioP2;P2;SDS_P1;SDS_P2;PMS_P1;PMS_P2;Temp;Humidity;BMP_temperature;BMP_pressure;BME280_temperature;BME280_humidity;BME280_pressure;Samples;Min_cycle;Max_cycle;Signal;HPM_P1;HPM_P2
2024/01/18 00:00:53;;;;;;;33.72;17.48;;;;;;;;;;5093840;28;20047;-84
2024/01/18 00:03:19;;;;;;;;;;;;;;;;;;5094213;28;20047;-85
2024/01/18 00:05:45;;;;;;;34.63;17.20;;;;;;;;;;5111387;28;20014;-85
2024/01/18 00:08:11;;;;;;;;;;;;;;;;;;5109996;28;20039;-85
2024/01/18 00:10:37;;;;;;;33.13;15.38;;;;;;;;;;5091696;28;19920;-85
2024/01/18 00:13:03;;;;;;;27.38;15.13;;;;;;;;;;5110412;28;20108;-86
2024/01/18 00:15:29;;;;;;;;;;;;;;;;;;5082661;28;20075;-86
2024/01/18 00:17:55;;;;;;;35.07;15.83;;;;;;;;;;5104187;28;19920;-86
2024/01/18 00:20:24;;;;;;;;;;;;;;;;;;5102545;28;20082;-85
2024/01/18 00:22:50;;;;;;;32.65;16.08;;;;;;;;;;5093447;28;19998;-85
2024/01/18 00:25:16;;;;;;;;;;;;;;;;;;5110443;28;20181;-84
2024/01/18 00:27:42;;;;;;;37.28;17.63;;;;;;;;;;5109436;28;20393;-86
2024/01/18 00:30:08;;;;;;;;;;;;;;;;;;5115369;28;20366;-84
2024/01/18 00:32:34;;;;;;;29.95;16.33;;;;;;;;;;5093216;28;19926;-85
2024/01/18 00:35:00;;;;;;;;;;;;;;;;;;5077166;28;20044;-86
2024/01/18 00:37:26;;;;;;;33.03;16.60;;;;;;;;;;5128978;27;19919;-84
2024/01/18 00:39:52;;;;;;;;;;;;;;;;;;5096830;28;20051;-86
2024/01/18 00:42:18;;;;;;;34.45;16.60;;;;;;;;;;5108109;28;19926;-85
2024/01/18 00:44:44;;;;;;;;;;;;;;;;;;5128017;27;20051;-85
2024/01/18 00:47:10;;;;;;;37.08;18.02;;;;;;;;;;5112974;28;19920;-84
2024/01/18 00:49:36;;;;;;;;;;;;;;;;;;5115207;28;20078;-85
2024/01/18 00:52:02;;;;;;;34.47;18.02;;;;;;;;;;5114506;28;19955;-85
2024/01/18 00:54:28;;;;;;;31.67;16.23;;;;;;;;;;5130827;27;20039;-85
2024/01/18 00:56:54;;;;;;;;;;;;;;;;;;5097440;28;20126;-85
2024/01/18 00:59:20;;;;;;;29.42;14.77;;;;;;;;;;5095880;27;20010;-85
2024/01/18 01:01:46;;;;;;;27.13;15.20;;;;;;;;;;5093956;28;20073;-85
2024/01/18 01:04:12;;;;;;;;;;;;;;;;;;5114585;28;20042;-83
2024/01/18 01:06:38;;;;;;;27.80;14.65;;;;;;;;;;5105633;28;19919;-85
2024/01/18 01:09:06;;;;;;;;;;;;;;;;;;5114800;28;20051;-85
2024/01/18 01:11:32;;;;;;;22.65;13.82;;;;;;;;;;5096237;28;20703;-85
2024/01/18 01:13:58;;;;;;;26.00;13.52;;;;;;;;;;5079086;28;20454;-85
2024/01/18 01:16:24;;;;;;;;;;;;;;;;;;5079576;28;20437;-85
2024/01/18 01:18:50;;;;;;;28.07;13.40;;;;;;;;;;5114323;28;19920;-85
2024/01/18 01:21:16;;;;;;;;;;;;;;;;;;5129754;27;20054;-84
2024/01/18 01:23:48;;;;;;;24.55;12.57;;;;;;;;;;5101885;28;19919;-84
2024/01/18 01:26:15;;;;;;;24.98;11.82;;;;;;;;;;5097347;28;20052;-84
2024/01/18 01:28:41;;;;;;;29.35;13.30;;;;;;;;;;5090957;28;20048;-84
2024/01/18 01:31:07;;;;;;;;;;;;;;;;;;5093379;28;20044;-84
2024/01/18 01:33:33;;;;;;;27.98;12.90;;;;;;;;;;5106270;28;19928;-84
2024/01/18 01:35:59;;;;;;;;;;;;;;;;;;5113741;28;20397;-85
2024/01/18 01:38:25;;;;;;;27.02;13.80;;;;;;;;;;5095588;28;20010;-84
2024/01/18 01:40:51;;;;;;;27.40;12.95;;;;;;;;;;5090575;28;20400;-84
2024/01/18 01:43:17;;;;;;;;;;;;;;;;;;5078575;28;20048;-84
2024/01/18 01:45:43;;;;;;;23.48;12.02;;;;;;;;;;5112782;28;19920;-84
2024/01/18 01:48:09;;;;;;;25.15;12.23;;;;;;;;;;5081385;28;20079;-84
2024/01/18 01:50:35;;;;;;;;;;;;;;;;;;5140177;27;20476;-84
2024/01/18 01:53:02;;;;;;;24.90;11.65;;;;;;;;;;5093474;28;19927;-84
2024/01/18 01:55:28;;;;;;;22.63;11.27;;;;;;;;;;5126582;27;20040;-83
2024/01/18 01:57:54;;;;;;;;;;;;;;;;;;5108055;28;20040;-84
2024/01/18 02:00:21;;;;;;;23.33;10.40;;;;;;;;;;5103239;28;19931;-84
2024/01/18 02:02:48;;;;;;;19.77;11.15;;;;;;;;;;5092180;28;20452;-84
2024/01/18 02:05:14;;;;;;;18.50;10.38;;;;;;;;;;5095523;28;20040;-84
2024/01/18 02:07:40;;;;;;;25.02;10.93;;;;;;;;;;5095469;28;20063;-84
2024/01/18 02:10:07;;;;;;;23.20;11.50;;;;;;;;;;5112589;28;20048;-84
2024/01/18 02:12:33;;;;;;;20.48;10.80;;;;;;;;;;5098536;28;20048;-84
2024/01/18 02:15:00;;;;;;;21.40;10.32;;;;;;;;;;5075251;28;20485;-83
2024/01/18 02:17:26;;;;;;;22.40;9.88;;;;;;;;;;5091993;28;20250;-85
2024/01/18 02:19:51;;;;;;;;;;;;;;;;;;5105038;28;20062;-84
2024/01/18 02:22:18;;;;;;;22.13;10.38;;;;;;;;;;5113054;28;20357;-83
2024/01/18 02:24:50;;;;;;;21.23;9.50;;;;;;;;;;5095632;28;20051;-84
2024/01/18 02:27:17;;;;;;;21.10;9.93;;;;;;;;;;5096041;28;20555;-84
2024/01/18 02:29:43;;;;;;;20.02;9.85;;;;;;;;;;5111350;28;20043;-84
2024/01/18 02:32:10;;;;;;;17.17;9.23;;;;;;;;;;5095389;28;20374;-84
2024/01/18 02:34:39;;;;;;;20.27;9.40;;;;;;;;;;5096412;28;20076;-84
2024/01/18 02:37:05;;;;;;;20.63;9.40;;;;;;;;;;5092912;28;20492;-83
2024/01/18 02:39:32;;;;;;;19.30;9.90;;;;;;;;;;5100567;28;20050;-84
2024/01/18 02:41:58;;;;;;;23.83;9.52;;;;;;;;;;5091937;28;20507;-84
2024/01/18 02:44:24;;;;;;;;;;;;;;;;;;5074990;28;20056;-84
2024/01/18 02:46:50;;;;;;;18.38;9.60;;;;;;;;;;5108199;28;19919;-84
2024/01/18 02:49:16;;;;;;;;;;;;;;;;;;5095171;28;20139;-83
2024/01/18 02:51:42;;;;;;;16.48;7.85;;;;;;;;;;5094802;28;19971;-84
2024/01/18 02:54:08;;;;;;;;;;;;;;;;;;5095436;28;20044;-84
2024/01/18 02:56:34;;;;;;;14.60;7.45;;;;;;;;;;5073959;28;20373;-83
2024/01/18 02:59:00;;;;;;;;;;;;;;;;;;5074456;28;20086;-83
2024/01/18 03:01:26;;;;;;;18.02;7.50;;;;;;;;;;5124966;27;19942;-84
2024/01/18 03:03:52;;;;;;;;;;;;;;;;;;5075067;28;20084;-84
2024/01/18 03:06:18;;;;;;;16.15;7.32;;;;;;;;;;5091950;28;19920;-84
2024/01/18 03:08:44;;;;;;;;;;;;;;;;;;5089820;28;20491;-84
2024/01/18 03:11:10;;;;;;;18.27;7.65;;;;;;;;;;5093150;28;19926;-83
2024/01/18 03:13:36;;;;;;;;;;;;;;;;;;5090960;28;20052;-84
2024/01/18 03:16:02;;;;;;;14.57;5.78;;;;;;;;;;5126583;27;19969;-84
2024/01/18 03:18:28;;;;;;;10.52;4.78;;;;;;;;;;5081212;28;20044;-84
2024/01/18 03:20:55;;;;;;;;;;;;;;;;;;5108565;28;20066;-83
2024/01/18 03:23:21;;;;;;;11.85;5.30;;;;;;;;;;5094420;28;19920;-83
2024/01/18 03:25:47;;;;;;;;;;;;;;;;;;5094882;28;20058;-84
2024/01/18 03:28:13;;;;;;;13.68;4.97;;;;;;;;;;5085254;28;19920;-83
2024/01/18 03:30:40;;;;;;;9.85;4.82;;;;;;;;;;5073786;28;20040;-83
2024/01/18 03:33:06;;;;;;;10.05;4.85;;;;;;;;;;5074565;28;20048;-83
2024/01/18 03:35:32;;;;;;;;;;;;;;;;;;5075246;28;20052;-83
2024/01/18 03:37:58;;;;;;;10.15;4.80;;;;;;;;;;5116072;27;19942;-84
2024/01/18 03:40:24;;;;;;;;;;;;;;;;;;5091767;28;20043;-83
2024/01/18 03:42:50;;;;;;;9.75;4.75;;;;;;;;;;5105439;28;19924;-83
2024/01/18 03:45:16;;;;;;;;;;;;;;;;;;5084026;28;20051;-83
2024/01/18 03:47:42;;;;;;;14.00;4.43;;;;;;;;;;5124812;27;19920;-83
2024/01/18 03:50:08;;;;;;;;;;;;;;;;;;5091943;28;20040;-83
2024/01/18 03:52:34;;;;;;;10.13;4.07;;;;;;;;;;5125261;27;19920;-84
2024/01/18 03:55:00;;;;;;;;;;;;;;;;;;5074498;28;20060;-83
2024/01/18 03:57:26;;;;;;;13.02;4.15;;;;;;;;;;5129820;27;19926;-83
2024/01/18 03:59:52;;;;;;;;;;;;;;;;;;5110937;28;20131;-83
2024/01/18 04:02:18;;;;;;;11.57;4.78;;;;;;;;;;5111254;28;20280;-83
2024/01/18 04:04:44;;;;;;;;;;;;;;;;;;5079737;28;20075;-83
2024/01/18 04:07:10;;;;;;;11.43;4.55;;;;;;;;;;5107996;28;19978;-82
2024/01/18 04:09:36;;;;;;;10.48;4.10;;;;;;;;;;5057550;28;20058;-84
2024/01/18 04:12:02;;;;;;;11.18;3.83;;;;;;;;;;5073693;28;20051;-83
2024/01/18 04:14:28;;;;;;;9.23;3.53;;;;;;;;;;5092253;28;20125;-83
2024/01/18 04:16:54;;;;;;;;;;;;;;;;;;5094798;28;20048;-82
2024/01/18 04:19:20;;;;;;;8.93;3.42;;;;;;;;;;5129424;27;20380;-83
2024/01/18 04:21:47;;;;;;;10.25;3.20;;;;;;;;;;5078289;28;20113;-83
2024/01/18 04:24:13;;;;;;;10.25;3.90;;;;;;;;;;5093415;28;20079;-83
2024/01/18 04:26:39;;;;;;;8.43;3.75;;;;;;;;;;5093878;28;20051;-84
2024/01/18 04:29:05;;;;;;;6.35;3.08;;;;;;;;;;5079532;28;20093;-83
2024/01/18 04:31:31;;;;;;;;;;;;;;;;;;5094780;28;20389;-82
2024/01/18 04:33:57;;;;;;;11.85;3.63;;;;;;;;;;5094630;28;19920;-82
2024/01/18 04:36:23;;;;;;;;;;;;;;;;;;5095443;28;20075;-82
2024/01/18 04:38:49;;;;;;;6.03;2.78;;;;;;;;;;5077382;28;20361;-83
2024/01/18 04:41:15;;;;;;;;;;;;;;;;;;5095360;28;20040;-83
2024/01/18 04:43:41;;;;;;;6.25;2.75;;;;;;;;;;5077080;28;19935;-84
2024/01/18 04:46:09;;;;;;;9.52;3.05;;;;;;;;;;5094662;28;20051;-82
2024/01/18 04:48:36;;;;;;;11.30;2.90;;;;;;;;;;5104026;28;20039;-82
2024/01/18 04:51:03;;;;;;;8.77;2.83;;;;;;;;;;5115185;27;20090;-83
2024/01/18 04:53:30;;;;;;;6.00;2.85;;;;;;;;;;5115010;28;20100;-82
2024/01/18 04:55:56;;;;;;;5.93;3.03;;;;;;;;;;5097516;28;20443;-82
2024/01/18 04:58:22;;;;;;;;;;;;;;;;;;5097865;28;20090;-83
2024/01/18 05:00:48;;;;;;;13.00;2.85;;;;;;;;;;5114105;28;20336;-82
2024/01/18 05:03:14;;;;;;;5.50;2.30;;;;;;;;;;5098054;28;20043;-82
2024/01/18 05:05:41;;;;;;;;;;;;;;;;;;5098569;28;20047;-83
2024/01/18 05:08:07;;;;;;;5.20;2.03;;;;;;;;;;5114330;28;19924;-82
2024/01/18 05:10:33;;;;;;;;;;;;;;;;;;5087327;28;20512;-82
2024/01/18 05:12:59;;;;;;;5.05;1.60;;;;;;;;;;5093333;28;19924;-82
2024/01/18 05:15:25;;;;;;;;;;;;;;;;;;5094784;28;20052;-81
2024/01/18 05:17:51;;;;;;;5.72;1.60;;;;;;;;;;5093805;28;19969;-82
2024/01/18 05:20:17;;;;;;;;;;;;;;;;;;5094379;28;20052;-82
2024/01/18 05:22:43;;;;;;;3.08;1.50;;;;;;;;;;5076876;28;19927;-83
2024/01/18 05:25:09;;;;;;;;;;;;;;;;;;5076586;28;20040;-82
2024/01/18 05:27:36;;;;;;;9.85;2.15;;;;;;;;;;5076846;28;19920;-84
2024/01/18 05:30:04;;;;;;;4.90;1.77;;;;;;;;;;5110826;28;20048;-82
2024/01/18 05:32:31;;;;;;;7.93;1.70;;;;;;;;;;5077488;28;20047;-81
2024/01/18 05:34:57;;;;;;;8.45;2.55;;;;;;;;;;5094116;28;20463;-83
2024/01/18 05:37:23;;;;;;;;;;;;;;;;;;5094671;28;20036;-83
2024/01/18 05:39:50;;;;;;;4.93;2.10;;;;;;;;;;5093987;28;19927;-85
2024/01/18 05:42:18;;;;;;;4.93;1.80;;;;;;;;;;5103385;28;20036;-82
2024/01/18 05:44:46;;;;;;;5.55;1.70;;;;;;;;;;5113957;28;20126;-81
2024/01/18 05:47:12;;;;;;;7.63;1.92;;;;;;;;;;5113891;28;20135;-82
2024/01/18 05:49:38;;;;;;;3.65;1.70;;;;;;;;;;5114531;28;20051;-81
2024/01/18 05:52:04;;;;;;;;;;;;;;;;;;5114469;28;20127;-81
2024/01/18 05:54:30;;;;;;;5.68;1.88;;;;;;;;;;5097273;28;19966;-81
2024/01/18 05:56:56;;;;;;;;;;;;;;;;;;5097112;28;20071;-81
2024/01/18 05:59:22;;;;;;;5.45;1.65;;;;;;;;;;5113711;28;20269;-82
2024/01/18 06:01:48;;;;;;;;;;;;;;;;;;5114540;28;20123;-81
2024/01/18 06:04:14;;;;;;;5.97;1.40;;;;;;;;;;5096770;28;20341;-81
2024/01/18 06:06:40;;;;;;;;;;;;;;;;;;5097469;28;20040;-82
2024/01/18 06:09:06;;;;;;;9.85;1.83;;;;;;;;;;5113607;28;19925;-81
2024/01/18 06:11:32;;;;;;;;;;;;;;;;;;5096942;28;20422;-82
2024/01/18 06:13:58;;;;;;;4.15;1.40;;;;;;;;;;5113318;28;19926;-82
2024/01/18 06:16:24;;;;;;;;;;;;;;;;;;5093823;28;20044;-81
2024/01/18 06:18:50;;;;;;;3.10;1.25;;;;;;;;;;5130857;27;19934;-82
2024/01/18 06:21:16;;;;;;;;;;;;;;;;;;5093615;28;20400;-80
2024/01/18 06:23:42;;;;;;;3.30;1.38;;;;;;;;;;5113217;28;20010;-81
2024/01/18 06:26:08;;;;;;;;;;;;;;;;;;5113842;28;20130;-80
2024/01/18 06:28:34;;;;;;;4.95;1.60;;;;;;;;;;5096141;28;19920;-80
2024/01/18 06:31:00;;;;;;;;;;;;;;;;;;5096584;28;20467;-81
2024/01/18 06:33:26;;;;;;;3.33;1.50;;;;;;;;;;5113537;28;19974;-80
2024/01/18 06:35:52;;;;;;;;;;;;;;;;;;5113580;28;20043;-80
2024/01/18 06:38:21;;;;;;;2.58;1.20;;;;;;;;;;5112289;28;19934;-80
2024/01/18 06:40:48;;;;;;;4.65;1.30;;;;;;;;;;5110145;28;20079;-82
2024/01/18 06:43:14;;;;;;;5.70;1.40;;;;;;;;;;5112829;28;20044;-80
2024/01/18 06:45:40;;;;;;;4.43;1.13;;;;;;;;;;5113648;28;20090;-80
2024/01/18 06:48:06;;;;;;;;;;;;;;;;;;5113478;28;20094;-82
2024/01/18 06:50:32;;;;;;;4.43;1.10;;;;;;;;;;5113120;28;19970;-80
2024/01/18 06:52:59;;;;;;;7.10;1.40;;;;;;;;;;5105064;28;20101;-84
2024/01/18 06:55:25;;;;;;;5.55;1.40;;;;;;;;;;5076018;28;20044;-80
2024/01/18 06:57:52;;;;;;;5.13;1.65;;;;;;;;;;5059062;28;20096;-83
2024/01/18 07:00:24;;;;;;;;;;;;;;;;;;5075858;28;20052;-80
2024/01/18 07:02:53;;;;;;;2.45;1.35;;;;;;;;;;5092841;28;19919;-80
2024/01/18 07:05:20;;;;;;;6.82;1.83;;;;;;;;;;5092293;28;20540;-80
2024/01/18 07:07:46;;;;;;;7.05;1.95;;;;;;;;;;5099224;28;20450;-80
2024/01/18 07:10:12;;;;;;;;;;;;;;;;;;5112740;28;20076;-78
2024/01/18 07:12:38;;;;;;;5.20;1.50;;;;;;;;;;5112197;28;20372;-78
2024/01/18 07:15:07;;;;;;;2.38;1.35;;;;;;;;;;5095503;28;20054;-79
2024/01/18 07:17:33;;;;;;;4.18;1.58;;;;;;;;;;5112676;28;20043;-80
2024/01/18 07:19:59;;;;;;;;;;;;;;;;;;5113125;28;20514;-79
2024/01/18 07:22:25;;;;;;;4.18;1.20;;;;;;;;;;5083673;28;20014;-79
2024/01/18 07:24:52;;;;;;;2.47;1.30;;;;;;;;;;5075136;28;20044;-80
2024/01/18 07:27:18;;;;;;;4.95;1.45;;;;;;;;;;5091637;28;20051;-81
2024/01/18 07:29:44;;;;;;;;;;;;;;;;;;5092340;28;20086;-79
2024/01/18 07:32:10;;;;;;;5.53;1.42;;;;;;;;;;5106284;28;19959;-79
2024/01/18 07:34:36;;;;;;;2.75;1.42;;;;;;;;;;5112552;28;20047;-76
2024/01/18 07:37:03;;;;;;;8.25;1.98;;;;;;;;;;5112137;28;20396;-83
2024/01/18 07:39:29;;;;;;;3.00;1.30;;;;;;;;;;5111772;28;20065;-78
2024/01/18 07:41:55;;;;;;;7.53;1.40;;;;;;;;;;5099739;28;20075;-79
2024/01/18 07:44:21;;;;;;;;;;;;;;;;;;5096361;28;20050;-78
2024/01/18 07:46:47;;;;;;;4.15;1.33;;;;;;;;;;5091870;28;19924;-79
2024/01/18 07:49:13;;;;;;;;;;;;;;;;;;5092000;28;20051;-79
2024/01/18 07:51:39;;;;;;;;;;;;;;;;;;5075486;28;20019;-84
2024/01/18 07:54:05;;;;;;;;;;;;;;;;;;5093470;28;19927;-82
2024/01/18 07:56:31;;;;;;;;;;;;;;;;;;5102061;28;19920;-77
2024/01/18 07:58:57;;;;;;;;;;;;;;;;;;5128347;27;19931;-79
2024/01/18 08:01:23;;;;;;;;;;;;;;;;;;5111819;28;19920;-79
2024/01/18 08:03:49;;;;;;;;;;;;;;;;;;5112744;28;20344;-79
2024/01/18 08:06:15;;;;;;;;;;;;;;;;;;5106314;28;20371;-79
2024/01/18 08:08:41;;;;;;;;;;;;;;;;;;5112703;28;20353;-79
2024/01/18 08:11:06;;;;;;;;;;;;;;;;;;5095489;28;20024;-81
2024/01/18 08:13:32;;;;;;;;;;;;;;;;;;5094869;28;19963;-79
2024/01/18 08:15:58;;;;;;;;;;;;;;;;;;5112656;28;20348;-79
2024/01/18 08:18:24;;;;;;;;;;;;;;;;;;5095005;28;19989;-79
2024/01/18 08:20:50;;;;;;;;;;;;;;;;;;5112798;28;19942;-79
2024/01/18 08:23:16;;;;;;;;;;;;;;;;;;5095326;28;20105;-79
2024/01/18 08:25:42;;;;;;;;;;;;;;;;;;5096735;28;19946;-79
2024/01/18 08:28:10;;;;;;;;;;;;;;;;;;5140061;27;19920;-79
2024/01/18 08:30:36;;;;;;;;;;;;;;;;;;5112027;28;19928;-79
2024/01/18 08:33:03;;;;;;;;;;;;;;;;;;5095721;28;20022;-79
2024/01/18 08:35:29;;;;;;;;;;;;;;;;;;5095147;28;19926;-79
2024/01/18 08:37:55;;;;;;;;;;;;;;;;;;5114000;28;20254;-79
2024/01/18 08:40:20;;;;;;;;;;;;;;;;;;5095142;28;19927;-77
2024/01/18 08:42:46;;;;;;;;;;;;;;;;;;5095253;28;19923;-77
2024/01/18 08:45:13;;;;;;;;;;;;;;;;;;5112081;28;19927;-85
2024/01/18 08:47:38;;;;;;;;;;;;;;;;;;5112227;28;19967;-77
2024/01/18 08:50:04;;;;;;;;;;;;;;;;;;5112228;28;20016;-79
2024/01/18 08:52:30;;;;;;;;;;;;;;;;;;5094464;28;19919;-77
2024/01/18 08:54:56;;;;;;;;;;;;;;;;;;5111091;28;19920;-85
2024/01/18 08:57:22;;;;;;;;;;;;;;;;;;5111310;28;19927;-83
2024/01/18 08:59:48;;;;;;;;;;;;;;;;;;5100783;27;20352;-79
2024/01/18 09:02:14;;;;;;;;;;;;;;;;;;5125763;27;19920;-81
2024/01/18 09:04:40;;;;;;;;;;;;;;;;;;5115267;28;19920;-81
2024/01/18 09:07:06;;;;;;;;;;;;;;;;;;5101714;28;19920;-79
2024/01/18 09:09:32;;;;;;;;;;;;;;;;;;5096369;28;19970;-79
2024/01/18 09:11:58;;;;;;;;;;;;;;;;;;5105731;27;20398;-80
2024/01/18 09:14:24;;;;;;;;;;;;;;;;;;5108962;28;19927;-80
2024/01/18 09:16:50;;;;;;;;;;;;;;;;;;5109941;28;19926;-80
2024/01/18 09:19:16;;;;;;;;;;;;;;;;;;5093876;28;19920;-80
2024/01/18 09:21:43;;;;;;;;;;;;;;;;;;5097533;28;19919;-80
2024/01/18 09:24:09;;;;;;;;;;;;;;;;;;5094935;28;19927;-76
2024/01/18 09:26:35;;;;;;;;;;;;;;;;;;5104397;28;19921;-79
2024/01/18 09:29:02;;;;;;;;;;;;;;;;;;5111193;28;19930;-84
2024/01/18 09:31:28;;;;;;;;;;;;;;;;;;5085336;28;19919;-77
2024/01/18 09:33:54;;;;;;;;;;;;;;;;;;5095038;28;19924;-77
2024/01/18 09:36:20;;;;;;;;;;;;;;;;;;5111885;28;19920;-79
2024/01/18 09:38:49;;;;;;;;;;;;;;;;;;5094360;28;19949;-84
2024/01/18 09:41:14;;;;;;;;;;;;;;;;;;5111456;28;19920;-78
2024/01/18 09:43:41;;;;;;;;;;;;;;;;;;5108598;28;19969;-78
2024/01/18 09:46:07;;;;;;;;;;;;;;;;;;5102034;28;20304;-79
2024/01/18 09:48:33;;;;;;;;;;;;;;;;;;5088768;28;19919;-79
2024/01/18 09:50:58;;;;;;;;;;;;;;;;;;5114840;28;19927;-79
2024/01/18 09:53:24;;;;;;;;;;;;;;;;;;5110775;28;19920;-80
2024/01/18 09:55:51;;;;;;;;;;;;;;;;;;5095517;28;19927;-79
2024/01/18 09:58:18;;;;;;;;;;;;;;;;;;5097335;28;19931;-80
2024/01/18 10:00:44;;;;;;;;;;;;;;;;;;5114208;28;19931;-80
2024/01/18 10:03:11;;;;;;;;;;;;;;;;;;5110195;28;20068;-81
2024/01/18 10:05:36;;;;;;;;;;;;;;;;;;5093711;28;20401;-83
2024/01/18 10:08:03;;;;;;;;;;;;;;;;;;5094769;28;20008;-80
2024/01/18 10:10:29;;;;;;;;;;;;;;;;;;5085541;28;19928;-83
2024/01/18 10:12:55;;;;;;;;;;;;;;;;;;5109440;28;19924;-81
2024/01/18 10:15:21;;;;;;;;;;;;;;;;;;5139122;27;19924;-82
2024/01/18 10:17:47;;;;;;;;;;;;;;;;;;5096723;28;20020;-81
2024/01/18 10:20:13;;;;;;;;;;;;;;;;;;5102826;28;19927;-82
2024/01/18 10:22:39;;;;;;;;;;;;;;;;;;5129196;27;19920;-82
2024/01/18 10:25:05;;;;;;;;;;;;;;;;;;5088759;28;19927;-81
2024/01/18 10:27:31;;;;;;;;;;;;;;;;;;5100338;28;20388;-84
2024/01/18 10:29:57;;;;;;;;;;;;;;;;;;5096163;28;20280;-82
2024/01/18 10:32:23;;;;;;;;;;;;;;;;;;5113846;28;19920;-81
2024/01/18 10:34:49;;;;;;;;;;;;;;;;;;5082153;28;19920;-82
2024/01/18 10:37:15;;;;;;;;;;;;;;;;;;5080062;28;20420;-81
2024/01/18 10:39:41;;;;;;;;;;;;;;;;;;5113661;28;19974;-81
2024/01/18 10:42:07;;;;;;;;;;;;;;;;;;5113662;28;19924;-82
2024/01/18 10:51:47;;;;;;;6.80;1.57;;;;;;;;;;5139092;27;1319895;-80
2024/01/18 10:54:14;;;;;;;7.20;1.60;;;;;;;;;;5137126;27;20123;-80
2024/01/18 10:56:40;;;;;;;4.00;1.42;;;;;;;;;;5124738;27;20549;-80
2024/01/18 10:59:06;;;;;;;;;;;;;;;;;;5136538;27;20046;-85
2024/01/18 11:01:34;;;;;;;4.78;1.48;;;;;;;;;;5136007;27;19919;-84
2024/01/18 11:04:01;;;;;;;7.55;2.63;;;;;;;;;;5133147;27;20047;-80
2024/01/18 11:06:27;;;;;;;8.93;1.80;;;;;;;;;;5153662;27;20039;-82
2024/01/18 11:08:54;;;;;;;4.40;1.42;;;;;;;;;;5135151;27;20038;-81
2024/01/18 11:11:20;;;;;;;6.18;1.35;;;;;;;;;;5152649;27;20079;-89
2024/01/18 11:13:47;;;;;;;5.90;1.50;;;;;;;;;;5152598;27;20046;-80
2024/01/18 11:16:13;;;;;;;4.70;1.40;;;;;;;;;;5127612;27;20046;-81
2024/01/18 11:18:39;;;;;;;;;;;;;;;;;;5131834;27;20050;-82
2024/01/18 11:21:08;;;;;;;5.78;1.33;;;;;;;;;;5152675;27;19918;-82
2024/01/18 11:23:38;;;;;;;2.40;1.05;;;;;;;;;;5124853;27;20043;-80
2024/01/18 11:26:08;;;;;;;5.15;1.13;;;;;;;;;;5124351;27;20031;-81
2024/01/18 11:28:35;;;;;;;9.48;1.38;;;;;;;;;;5122826;27;20039;-81
2024/01/18 11:31:02;;;;;;;1.50;1.10;;;;;;;;;;5122955;27;20035;-81
2024/01/18 11:33:28;;;;;;;3.67;1.15;;;;;;;;;;5123148;27;20039;-80
2024/01/18 11:35:56;;;;;;;2.88;1.08;;;;;;;;;;5121213;27;20122;-81
2024/01/18 11:38:29;;;;;;;2.30;0.80;;;;;;;;;;5122100;27;20050;-81
2024/01/18 11:41:03;;;;;;;2.40;0.93;;;;;;;;;;5115554;28;20083;-82
2024/01/18 11:43:49;;;;;;;4.85;1.00;;;;;;;;;;5111308;27;20044;-83
2024/01/18 11:46:15;;;;;;;2.15;0.88;;;;;;;;;;5131379;27;20049;-82
2024/01/18 11:48:41;;;;;;;2.40;0.93;;;;;;;;;;5110685;28;20047;-83
2024/01/18 11:51:08;;;;;;;3.22;0.90;;;;;;;;;;5099094;28;20056;-84
2024/01/18 11:53:34;;;;;;;3.60;0.77;;;;;;;;;;5110510;28;20083;-83
2024/01/18 11:56:02;;;;;;;1.48;0.70;;;;;;;;;;5102704;28;20478;-84
2024/01/18 11:58:28;;;;;;;1.17;0.70;;;;;;;;;;5126552;28;20126;-83
2024/01/18 12:00:54;;;;;;;;;;;;;;;;;;5115629;28;20071;-84
2024/01/18 12:03:20;;;;;;;2.92;0.80;;;;;;;;;;5089286;28;19927;-85
2024/01/18 12:05:47;;;;;;;;;;;;;;;;;;5113912;28;20043;-86
2024/01/18 12:08:14;;;;;;;1.33;0.70;;;;;;;;;;5094950;28;19924;-84
2024/01/18 12:10:40;;;;;;;0.90;0.60;;;;;;;;;;5096970;28;20050;-84
2024/01/18 12:13:06;;;;;;;;;;;;;;;;;;5069072;28;20048;-85
2024/01/18 12:15:33;;;;;;;0.85;0.50;;;;;;;;;;5102105;28;19920;-84
2024/01/18 12:17:59;;;;;;;2.33;0.80;;;;;;;;;;5107818;28;20370;-86
2024/01/18 12:20:25;;;;;;;2.88;1.23;;;;;;;;;;5097335;28;20055;-86
2024/01/18 12:22:52;;;;;;;3.03;0.80;;;;;;;;;;5096508;28;20050;-88
2024/01/18 12:25:17;;;;;;;;;;;;;;;;;;5097924;28;20538;-85
2024/01/18 12:27:44;;;;;;;2.05;0.75;;;;;;;;;;5112223;28;19924;-85
2024/01/18 12:30:10;;;;;;;0.75;0.70;;;;;;;;;;5092593;28;20032;-86
2024/01/18 12:32:36;;;;;;;4.47;1.05;;;;;;;;;;5098613;28;20043;-86
2024/01/18 12:35:03;;;;;;;2.78;0.90;;;;;;;;;;5112201;28;20071;-86
2024/01/18 12:37:30;;;;;;;2.45;1.00;;;;;;;;;;5106339;28;20040;-86
2024/01/18 12:39:56;;;;;;;2.00;0.82;;;;;;;;;;5086997;28;20078;-86
2024/01/18 12:42:22;;;;;;;;;;;;;;;;;;5111736;28;20039;-87
2024/01/18 12:44:52;;;;;;;3.63;1.10;;;;;;;;;;5096985;28;19920;-87
2024/01/18 12:47:18;;;;;;;4.43;1.00;;;;;;;;;;5067793;28;20109;-90
2024/01/18 12:49:45;;;;;;;3.47;1.33;;;;;;;;;;5094914;28;20051;-93
2024/01/18 12:52:13;;;;;;;3.53;1.08;;;;;;;;;;5084972;28;20140;-88
2024/01/18 12:54:39;;;;;;;5.82;1.25;;;;;;;;;;5112399;27;20043;-90
2024/01/18 12:57:05;;;;;;;;;;;;;;;;;;5096356;28;20066;-89
2024/01/18 12:59:32;;;;;;;3.50;0.90;;;;;;;;;;5102735;27;20344;-88
2024/01/18 13:01:58;;;;;;;8.68;1.55;;;;;;;;;;5116071;27;20039;-88
2024/01/18 13:04:25;;;;;;;3.20;1.17;;;;;;;;;;5098178;27;20035;-89
2024/01/18 13:06:52;;;;;;;5.47;1.08;;;;;;;;;;5096857;27;20054;-90
2024/01/18 13:09:23;;;;;;;3.08;1.08;;;;;;;;;;5094755;28;20126;-93
2024/01/18 13:11:50;;;;;;;3.97;1.10;;;;;;;;;;5087681;28;20044;-86
2024/01/18 13:14:16;;;;;;;4.80;1.40;;;;;;;;;;5115074;27;20032;-91
2024/01/18 13:16:46;;;;;;;3.25;1.20;;;;;;;;;;5095973;28;20058;-83
2024/01/18 13:19:14;;;;;;;3.22;0.98;;;;;;;;;;5096179;27;20099;-85
2024/01/18 13:21:41;;;;;;;3.97;1.02;;;;;;;;;;5116595;27;20046;-88
2024/01/18 13:24:08;;;;;;;3.00;1.10;;;;;;;;;;5097102;27;20396;-87
2024/01/18 13:26:38;;;;;;;3.10;1.30;;;;;;;;;;5082096;27;20054;-87
2024/01/18 13:29:05;;;;;;;2.40;0.95;;;;;;;;;;5078172;28;20096;-88
2024/01/18 13:31:32;;;;;;;1.02;0.75;;;;;;;;;;5079030;28;20126;-88
2024/01/18 13:33:58;;;;;;;3.55;1.10;;;;;;;;;;5086425;27;20051;-88
2024/01/18 13:36:25;;;;;;;4.20;0.90;;;;;;;;;;5116440;27;20488;-88
2024/01/18 13:38:51;;;;;;;3.25;0.90;;;;;;;;;;5116220;27;20051;-88
2024/01/18 13:41:17;;;;;;;1.88;0.77;;;;;;;;;;5081676;27;20068;-87
2024/01/18 13:43:43;;;;;;;2.70;0.80;;;;;;;;;;5105628;27;20690;-85
2024/01/18 13:46:09;;;;;;;;;;;;;;;;;;5115505;27;20047;-87
2024/01/18 13:48:35;;;;;;;3.05;0.90;;;;;;;;;;5098715;27;20326;-86
2024/01/18 13:51:01;;;;;;;;;;;;;;;;;;5112031;28;20063;-86
2024/01/18 13:53:28;;;;;;;6.10;0.88;;;;;;;;;;5082999;28;19919;-86
2024/01/18 13:55:54;;;;;;;1.73;0.70;;;;;;;;;;5075011;28;20481;-86
2024/01/18 13:58:21;;;;;;;5.25;1.10;;;;;;;;;;5080866;28;20051;-86
2024/01/18 14:00:47;;;;;;;2.53;1.00;;;;;;;;;;5074161;28;20086;-68
2024/01/18 14:03:14;;;;;;;2.08;0.65;;;;;;;;;;5097893;28;20039;-68
2024/01/18 14:05:41;;;;;;;2.15;0.80;;;;;;;;;;5104793;28;20052;-68
2024/01/18 14:08:07;;;;;;;1.67;0.90;;;;;;;;;;5097070;28;20036;-68
2024/01/18 14:10:33;;;;;;;2.03;0.80;;;;;;;;;;5092554;28;20044;-68
2024/01/18 14:13:03;;;;;;;3.78;0.80;;;;;;;;;;5097424;28;20047;-72
2024/01/18 14:15:33;;;;;;;3.83;0.95;;;;;;;;;;5106303;28;20039;-68
2024/01/18 14:17:59;;;;;;;3.65;1.63;;;;;;;;;;5101515;28;20401;-68
2024/01/18 14:20:25;;;;;;;1.58;0.90;;;;;;;;;;5099927;28;20043;-68
2024/01/18 14:22:52;;;;;;;2.30;0.80;;;;;;;;;;5103463;28;20047;-68
2024/01/18 14:25:18;;;;;;;;;;;;;;;;;;5093733;28;20396;-68
2024/01/18 14:27:44;;;;;;;2.50;0.93;;;;;;;;;;5091188;28;20006;-68
2024/01/18 14:30:10;;;;;;;;;;;;;;;;;;5102187;28;20369;-68
2024/01/18 14:32:37;;;;;;;3.83;1.10;;;;;;;;;;5111771;28;19959;-69
2024/01/18 14:35:05;;;;;;;3.33;1.05;;;;;;;;;;5094347;28;20127;-72
2024/01/18 14:37:31;;;;;;;4.45;1.02;;;;;;;;;;5092022;28;20055;-68
2024/01/18 14:39:57;;;;;;;2.88;1.20;;;;;;;;;;5100591;28;20079;-69
2024/01/18 14:42:23;;;;;;;;;;;;;;;;;;5106630;28;20039;-68
2024/01/18 14:44:50;;;;;;;3.83;1.23;;;;;;;;;;5130675;27;19926;-68
2024/01/18 14:47:23;;;;;;;6.43;1.05;;;;;;;;;;5131557;27;20110;-70
2024/01/18 14:49:55;;;;;;;3.03;1.13;;;;;;;;;;5121583;27;20051;-85
2024/01/18 14:52:22;;;;;;;4.80;1.15;;;;;;;;;;5116688;28;20046;-84
2024/01/18 14:54:51;;;;;;;3.10;1.17;;;;;;;;;;5097026;28;20039;-85
2024/01/18 14:57:21;;;;;;;3.85;1.30;;;;;;;;;;5080326;27;20044;-84
2024/01/18 14:59:48;;;;;;;2.30;1.20;;;;;;;;;;5113287;28;20039;-84
2024/01/18 15:02:15;;;;;;;3.22;1.05;;;;;;;;;;5113341;27;20048;-84
2024/01/18 15:04:41;;;;;;;4.07;1.33;;;;;;;;;;5097489;28;20054;-84
2024/01/18 15:07:08;;;;;;;5.82;1.50;;;;;;;;;;5093205;28;20089;-84
2024/01/18 15:09:34;;;;;;;5.38;1.58;;;;;;;;;;5085944;28;20115;-84
2024/01/18 15:12:01;;;;;;;6.70;1.50;;;;;;;;;;5109036;28;20039;-84
2024/01/18 15:14:27;;;;;;;5.18;1.50;;;;;;;;;;5117051;27;20039;-84
2024/01/18 15:16:53;;;;;;;;;;;;;;;;;;5117309;27;20042;-84
2024/01/18 15:19:19;;;;;;;2.80;1.48;;;;;;;;;;5117010;27;19919;-83
2024/01/18 15:21:46;;;;;;;4.22;1.67;;;;;;;;;;5123551;27;20446;-83
2024/01/18 15:24:12;;;;;;;4.93;1.50;;;;;;;;;;5134076;27;20035;-82